Time;durP1;ratioP1;P1;durP2;ratioP2;P2;SDS_P1;SDS_P2;PMS_P1;PMS_P2;Temp;Humidity;BMP_temperature;BMP_pressure;BME280_temperature;BME280_humidity;BME280_pressure;Samples;Min_cycle;Max_cycle;Signal;HPM_P1;HPM_P2
2023/07/04 00:00:34;;;;;;;;;;;;;;;;;;;;;
2023/07/04 00:01:35;;;;;;;9.50;5.35;;;;;;;;;;498842;29;979;-75
2023/07/04 00:01:54;;;;;;;10.00;5.45;;;;;;;;;;493286;29;1358;-76
2023/07/04 00:02:31;;;;;;;9.15;5.55;;;;;;;;;;502198;28;1543;-76
2023/07/04 00:03:13;;;;;;;8.30;5.30;;;;;;;;;;501014;28;1488;-76
2023/07/04 00:03:55;;;;;;;9.45;5.45;;;;;;;;;;501327;28;1134;-75
2023/07/04 00:04:24;;;;;;;9.27;5.40;;;;;;;;;;497553;29;1362;-75
2023/07/04 00:05:03;;;;;;;8.55;5.40;;;;;;;;;;497095;29;1432;-75
2023/07/04 00:05:57;;;;;;;9.02;5.28;;;;;;;;;;498963;29;1399;-75
2023/07/04 00:06:28;;;;;;;;;;;;;;;;;;;;;
2023/07/04 00:07:14;;;;;;;;;;;;;;;;;;;;;
2023/07/04 00:07:31;;;;;;;8.00;5.20;;;;;;;;;;502817;29;1303;-76
2023/07/04 00:09:06;;;;;;;;;;;;;;;;;;;;;
2023/07/04 00:09:42;;;;;;;10.95;5.80;;;;;;;;;;499437;29;1230;-75
2023/07/04 00:10:24;;;;;;;9.85;5.50;;;;;;;;;;501271;28;1140;-75
2023/07/04 00:10:46;;;;;;;9.27;5.50;;;;;;;;;;495545;29;1402;-77
2023/07/04 00:11:08;;;;;;;7.82;5.30;;;;;;;;;;500296;29;1001;-75
2023/07/04 00:11:24;;;;;;;8.90;5.10;;;;;;;;;;501004;29;1929;-75
2023/07/04 00:12:20;;;;;;;9.00;5.30;;;;;;;;;;499228;29;1305;-75
2023/07/04 00:13:17;;;;;;;8.43;5.15;;;;;;;;;;494852;29;1338;-76
2023/07/04 00:13:42;;;;;;;8.43;5.25;;;;;;;;;;496989;29;1404;-76
2023/07/04 00:14:19;;;;;;;8.98;5.30;;;;;;;;;;497515;29;1514;-76
2023/07/04 00:14:44;;;;;;;9.30;5.65;;;;;;;;;;496863;29;1428;-76
2023/07/04 00:15:26;;;;;;;8.88;5.45;;;;;;;;;;497522;29;1380;-76
2023/07/04 00:15:52;;;;;;;9.90;5.45;;;;;;;;;;497265;29;1160;-76
2023/07/04 00:16:28;;;;;;;;;;;;;;;;;;;;;
2023/07/04 00:16:44;;;;;;;10.32;5.50;;;;;;;;;;497396;29;1120;-75
2023/07/04 00:17:07;;;;;;;8.55;5.45;;;;;;;;;;497482;29;1349;-75
2023/07/04 00:17:50;;;;;;;8.68;5.65;;;;;;;;;;498402;29;1281;-75
2023/07/04 00:18:32;;;;;;;9.52;5.50;;;;;;;;;;492231;29;1446;-75
2023/07/04 00:19:10;;;;;;;9.40;5.65;;;;;;;;;;489375;29;1552;-76
2023/07/04 00:20:53;;;;;;;;;;;;;;;;;;;;;
2023/07/04 00:22:48;;;;;;;8.52;5.07;;;;;;;;;;490422;29;1322;-76
2023/07/04 00:23:29;;;;;;;9.45;5.50;;;;;;;;;;489059;29;1926;-76
2023/07/04 00:24:22;;;;;;;8.88;5.25;;;;;;;;;;487151;29;1400;-76
2023/07/04 00:25:09;;;;;;;6.63;4.60;;;;;;;;;;486163;29;1483;-74
2023/07/04 00:26:08;;;;;;;9.10;5.35;;;;;;;;;;490100;29;1520;-75
2023/07/04 00:27:12;;;;;;;10.23;5.55;;;;;;;;;;492025;29;1363;-76
2023/07/04 00:28:37;;;;;;;;;;;;;;;;;;;;;
2023/07/04 00:29:11;;;;;;;9.30;5.57;;;;;;;;;;487999;29;1248;-75
2023/07/04 00:29:39;;;;;;;8.57;5.28;;;;;;;;;;487296;29;1140;-76
2023/07/04 00:30:04;;;;;;;8.00;5.18;;;;;;;;;;485881;29;1104;-76
2023/07/04 00:31:05;;;;;;;9.43;5.40;;;;;;;;;;486394;29;1476;-76
2023/07/04 00:31:42;;;;;;;10.02;5.47;;;;;;;;;;483716;29;1361;-76
2023/07/04 00:32:51;;;;;;;8.13;5.03;;;;;;;;;;479597;30;1201;-76
2023/07/04 00:34:20;;;;;;;6.65;4.70;;;;;;;;;;481131;30;1955;-76
2023/07/04 00:34:39;;;;;;;9.32;5.13;;;;;;;;;;483834;29;1531;-76
2023/07/04 00:35:05;;;;;;;;;;;;;;;;;;;;;
2023/07/04 00:35:35;;;;;;;9.63;5.35;;;;;;;;;;482209;30;960;-75
2023/07/04 00:36:43;;;;;;;7.78;5.25;;;;;;;;;;479385;30;1206;-77
2023/07/04 00:37:12;;;;;;;9.45;5.30;;;;;;;;;;480675;30;1379;-76
2023/07/04 00:37:31;;;;;;;9.52;5.47;;;;;;;;;;483498;29;1332;-76
2023/07/04 00:38:37;;;;;;;8.05;5.32;;;;;;;;;;482895;29;1150;-77
2023/07/04 00:39:21;;;;;;;8.70;5.60;;;;;;;;;;478222;30;1435;-75
2023/07/04 00:40:23;;;;;;;9.70;5.43;;;;;;;;;;482602;30;1363;-76
2023/07/04 00:40:57;;;;;;;;;;;;;;;;;;;;;
2023/07/04 00:41:21;;;;;;;10.00;5.50;;;;;;;;;;480078;29;1323;-76
2023/07/04 00:42:13;;;;;;;;;;;;;;;;;;;;;
2023/07/04 00:43:21;;;;;;;;;;;;;;;;;;;;;
2023/07/04 00:45:09;;;;;;;8.98;5.35;;;;;;;;;;482392;29;1156;-76
2023/07/04 00:45:28;;;;;;;9.18;5.05;;;;;;;;;;483307;29;1376;-75
2023/07/04 00:46:03;;;;;;;8.18;5.00;;;;;;;;;;484204;30;1523;-76
2023/07/04 00:47:21;;;;;;;7.90;4.80;;;;;;;;;;485185;29;1441;-75
2023/07/04 00:47:46;;;;;;;9.10;5.18;;;;;;;;;;483386;29;1529;-76
2023/07/04 00:49:22;;;;;;;8.90;5.07;;;;;;;;;;487926;29;935;-76
2023/07/04 00:49:59;;;;;;;9.38;5.47;;;;;;;;;;488270;29;1367;-77
2023/07/04 00:50:49;;;;;;;8.70;5.00;;;;;;;;;;487938;29;1444;-76
2023/07/04 00:53:49;;;;;;;8.88;5.28;;;;;;;;;;483540;29;1608;-75
2023/07/04 00:54:27;;;;;;;;;;;;;;;;;;;;;
2023/07/04 00:57:40;;;;;;;8.95;5.40;;;;;;;;;;482373;30;1134;-76
2023/07/04 00:58:48;;;;;;;9.65;4.95;;;;;;;;;;483503;30;1147;-76
2023/07/04 00:59:08;;;;;;;;;;;;;;;;;;;;;
2023/07/04 00:59:58;;;;;;;8.73;5.00;;;;;;;;;;481936;30;1373;-75
2023/07/04 01:00:28;;;;;;;7.38;4.90;;;;;;;;;;484528;29;1112;-76
2023/07/04 01:05:21;;;;;;;8.88;5.53;;;;;;;;;;478443;30;1258;-76
2023/07/04 01:05:45;;;;;;;9.00;4.95;;;;;;;;;;480878;30;1421;-76
2023/07/04 01:07:58;;;;;;;8.25;5.10;;;;;;;;;;488213;29;1188;-77
2023/07/04 01:08:43;;;;;;;9.68;5.28;;;;;;;;;;487833;29;1188;-77
2023/07/04 01:10:05;;;;;;;8.75;5.10;;;;;;;;;;488418;29;1612;-77
2023/07/04 01:10:33;;;;;;;10.30;5.38;;;;;;;;;;483834;29;1309;-77
2023/07/04 01:12:46;;;;;;;8.45;4.80;;;;;;;;;;487137;29;1363;-76
2023/07/04 01:13:53;;;;;;;8.70;5.22;;;;;;;;;;483874;29;1143;-77
2023/07/04 01:14:42;;;;;;;8.48;5.20;;;;;;;;;;491518;29;1557;-77
2023/07/04 01:15:14;;;;;;;8.95;5.05;;;;;;;;;;489370;29;1331;-77
2023/07/04 01:16:24;;;;;;;8.70;4.97;;;;;;;;;;486099;29;1428;-78
2023/07/04 01:17:12;;;;;;;9.40;5.18;;;;;;;;;;489621;29;1532;-78
2023/07/04 01:18:49;;;;;;;8.65;5.32;;;;;;;;;;488947;29;1388;-78
2023/07/04 01:19:14;;;;;;;10.13;5.47;;;;;;;;;;489901;29;1370;-75
2023/07/04 01:19:35;;;;;;;10.10;5.30;;;;;;;;;;491178;29;1477;-76
2023/07/04 01:19:58;;;;;;;9.40;5.03;;;;;;;;;;490311;29;1466;-77
2023/07/04 01:20:23;;;;;;;7.97;5.10;;;;;;;;;;490171;29;1368;-76
2023/07/04 01:21:43;;;;;;;;;;;;;;;;;;;;;
2023/07/04 01:22:33;;;;;;;9.35;4.93;;;;;;;;;;486304;29;1359;-76
2023/07/04 01:23:34;;;;;;;9.70;4.78;;;;;;;;;;490230;29;1330;-76
2023/07/04 01:24:08;;;;;;;8.43;4.95;;;;;;;;;;487942;29;1400;-75
2023/07/04 01:24:40;;;;;;;8.98;5.22;;;;;;;;;;487924;29;1106;-78
2023/07/04 01:25:54;;;;;;;8.93;5.28;;;;;;;;;;486852;29;1452;-76
2023/07/04 01:26:16;;;;;;;8.15;5.35;;;;;;;;;;480424;30;1345;-76
2023/07/04 01:26:54;;;;;;;10.55;5.45;;;;;;;;;;483283;30;1693;-76
2023/07/04 01:27:45;;;;;;;9.43;5.10;;;;;;;;;;482795;30;1440;-77
2023/07/04 01:28:05;;;;;;;8.55;5.15;;;;;;;;;;486676;29;1622;-77
2023/07/04 01:28:24;;;;;;;8.45;5.05;;;;;;;;;;485609;29;1470;-76
2023/07/04 01:29:12;;;;;;;10.25;5.20;;;;;;;;;;485181;29;1658;-76
2023/07/04 01:29:36;;;;;;;8.82;4.95;;;;;;;;;;488221;29;1620;-77
2023/07/04 01:30:20;;;;;;;8.90;4.88;;;;;;;;;;489214;29;1504;-76
2023/07/04 01:30:38;;;;;;;9.65;5.00;;;;;;;;;;492276;29;1978;-76
2023/07/04 01:31:05;;;;;;;10.30;5.15;;;;;;;;;;493504;29;1175;-75
2023/07/04 01:31:50;;;;;;;11.18;5.60;;;;;;;;;;492342;29;1940;-77
2023/07/04 01:32:14;;;;;;;8.00;4.93;;;;;;;;;;492832;29;1155;-76
2023/07/04 01:33:03;;;;;;;9.23;5.30;;;;;;;;;;494525;29;1438;-76
2023/07/04 01:33:28;;;;;;;9.07;5.00;;;;;;;;;;492765;29;1976;-76
2023/07/04 01:33:53;;;;;;;7.75;5.10;;;;;;;;;;492977;29;1333;-76
2023/07/04 01:34:34;;;;;;;8.52;5.15;;;;;;;;;;490841;29;1703;-76
2023/07/04 01:34:50;;;;;;;8.80;4.80;;;;;;;;;;497575;29;1345;-77
2023/07/04 01:35:06;;;;;;;9.10;4.80;;;;;;;;;;503925;29;1061;-77
2023/07/04 01:35:25;;;;;;;9.73;4.90;;;;;;;;;;500348;29;1444;-75
2023/07/04 01:35:40;;;;;;;9.35;5.03;;;;;;;;;;503026;29;1044;-76
2023/07/04 01:35:56;;;;;;;10.57;5.47;;;;;;;;;;501105;29;1334;-76
2023/07/04 01:36:11;;;;;;;10.93;5.47;;;;;;;;;;501611;29;1247;-76
2023/07/04 01:36:30;;;;;;;9.83;5.10;;;;;;;;;;501403;29;1175;-77
2023/07/04 01:36:45;;;;;;;8.35;4.97;;;;;;;;;;499773;29;1423;-76
2023/07/04 01:37:02;;;;;;;9.38;5.28;;;;;;;;;;496228;29;1381;-76
2023/07/04 01:37:18;;;;;;;9.00;5.10;;;;;;;;;;495459;29;2075;-76
2023/07/04 01:37:33;;;;;;;7.60;4.78;;;;;;;;;;495204;29;1435;-76
2023/07/04 01:37:50;;;;;;;8.83;5.10;;;;;;;;;;498052;29;1254;-77
2023/07/04 01:38:06;;;;;;;9.43;5.25;;;;;;;;;;498275;29;1428;-77
2023/07/04 01:38:21;;;;;;;8.35;4.97;;;;;;;;;;496308;29;1075;-77
2023/07/04 01:38:36;;;;;;;8.50;5.20;;;;;;;;;;496053;29;1276;-76
2023/07/04 01:38:52;;;;;;;8.95;5.18;;;;;;;;;;496686;29;1211;-77
2023/07/04 01:39:14;;;;;;;9.30;5.00;;;;;;;;;;499640;29;1211;-78
2023/07/04 01:39:30;;;;;;;8.85;5.07;;;;;;;;;;501780;29;1129;-76
2023/07/04 01:39:45;;;;;;;8.10;5.17;;;;;;;;;;502612;29;1232;-76
2023/07/04 01:40:01;;;;;;;9.23;5.15;;;;;;;;;;503054;29;1192;-75
2023/07/04 01:40:17;;;;;;;9.87;4.90;;;;;;;;;;502110;29;1303;-76
2023/07/04 01:40:34;;;;;;;8.30;4.97;;;;;;;;;;502523;29;1261;-76
2023/07/04 01:40:49;;;;;;;8.73;4.93;;;;;;;;;;501098;29;1410;-76
2023/07/04 01:41:04;;;;;;;9.30;4.83;;;;;;;;;;499371;29;1294;-76
2023/07/04 01:41:20;;;;;;;9.15;5.10;;;;;;;;;;499636;29;1225;-76
2023/07/04 01:41:35;;;;;;;9.83;5.10;;;;;;;;;;498219;29;1428;-77
2023/07/04 01:41:50;;;;;;;9.03;4.93;;;;;;;;;;499214;29;1208;-76
2023/07/04 01:42:06;;;;;;;10.15;5.40;;;;;;;;;;499864;29;1237;-77
2023/07/04 01:42:22;;;;;;;10.43;5.40;;;;;;;;;;498818;29;1167;-76
2023/07/04 01:42:38;;;;;;;9.80;5.20;;;;;;;;;;499204;29;1312;-76
2023/07/04 01:42:53;;;;;;;10.55;5.35;;;;;;;;;;501744;29;1003;-76
2023/07/04 01:43:09;;;;;;;10.38;5.20;;;;;;;;;;501797;29;1340;-76
2023/07/04 01:43:24;;;;;;;9.23;4.93;;;;;;;;;;501868;29;1210;-78
2023/07/04 01:43:39;;;;;;;9.90;5.00;;;;;;;;;;502311;29;1334;-76
2023/07/04 01:44:06;;;;;;;9.40;5.03;;;;;;;;;;500492;29;1217;-76
2023/07/04 01:44:24;;;;;;;10.27;5.13;;;;;;;;;;500262;29;1315;-76
2023/07/04 01:44:40;;;;;;;9.05;5.13;;;;;;;;;;501553;29;1530;-76
2023/07/04 01:44:55;;;;;;;8.27;5.07;;;;;;;;;;501766;29;1166;-76
2023/07/04 01:45:12;;;;;;;10.35;5.38;;;;;;;;;;501688;29;1428;-78
2023/07/04 01:45:27;;;;;;;11.57;5.40;;;;;;;;;;502040;29;1166;-77
2023/07/04 01:45:45;;;;;;;10.88;5.32;;;;;;;;;;501975;29;1281;-76
2023/07/04 01:46:01;;;;;;;10.55;5.00;;;;;;;;;;494279;29;1289;-76
2023/07/04 01:46:17;;;;;;;10.50;5.00;;;;;;;;;;489601;29;1469;-76
2023/07/04 01:46:34;;;;;;;10.27;5.30;;;;;;;;;;488137;29;1250;-76
2023/07/04 01:46:50;;;;;;;7.93;4.75;;;;;;;;;;497915;29;1373;-76
2023/07/04 01:47:06;;;;;;;7.57;4.65;;;;;;;;;;499371;29;1206;-76
2023/07/04 01:47:21;;;;;;;10.20;5.10;;;;;;;;;;500164;29;1214;-77
2023/07/04 01:47:38;;;;;;;11.02;5.10;;;;;;;;;;499447;29;1174;-76
2023/07/04 01:47:53;;;;;;;9.05;5.20;;;;;;;;;;499191;29;1193;-75
2023/07/04 01:48:08;;;;;;;10.27;5.43;;;;;;;;;;498836;29;1266;-76
2023/07/04 01:48:24;;;;;;;10.95;5.55;;;;;;;;;;504606;29;1206;-76
2023/07/04 01:48:39;;;;;;;9.87;5.30;;;;;;;;;;503867;29;1337;-77
2023/07/04 01:48:55;;;;;;;9.70;5.10;;;;;;;;;;502765;29;1309;-76
2023/07/04 01:49:11;;;;;;;9.43;4.97;;;;;;;;;;504589;29;1301;-76
2023/07/04 01:49:26;;;;;;;8.43;4.90;;;;;;;;;;504020;29;1207;-76
2023/07/04 01:49:41;;;;;;;8.27;5.23;;;;;;;;;;505367;29;1177;-76
2023/07/04 01:49:57;;;;;;;8.80;5.43;;;;;;;;;;504826;29;1210;-76
2023/07/04 01:50:13;;;;;;;8.53;5.30;;;;;;;;;;503117;29;1283;-77
2023/07/04 01:50:28;;;;;;;8.27;5.15;;;;;;;;;;503129;29;1308;-76
2023/07/04 01:50:44;;;;;;;8.47;5.03;;;;;;;;;;504029;29;1280;-76
2023/07/04 01:50:59;;;;;;;9.40;5.05;;;;;;;;;;505567;29;1310;-77
2023/07/04 01:51:14;;;;;;;10.70;5.27;;;;;;;;;;507576;29;1219;-76
2023/07/04 01:51:34;;;;;;;10.07;5.27;;;;;;;;;;505197;29;1336;-76
2023/07/04 01:51:49;;;;;;;8.50;5.00;;;;;;;;;;503638;29;1440;-76
2023/07/04 01:52:05;;;;;;;8.57;4.70;;;;;;;;;;501240;29;1221;-76
2023/07/04 01:52:21;;;;;;;9.90;5.05;;;;;;;;;;501803;29;1363;-76
2023/07/04 01:52:37;;;;;;;11.07;5.40;;;;;;;;;;508532;29;1320;-76
2023/07/04 01:52:52;;;;;;;11.50;5.32;;;;;;;;;;510792;29;1504;-77
2023/07/04 01:53:07;;;;;;;11.43;5.20;;;;;;;;;;509190;29;1913;-76
2023/07/04 01:53:23;;;;;;;11.50;5.28;;;;;;;;;;509466;29;1255;-76
2023/07/04 01:53:38;;;;;;;9.53;5.10;;;;;;;;;;511332;29;1326;-77
2023/07/04 01:53:53;;;;;;;9.97;5.10;;;;;;;;;;509592;29;1309;-76
2023/07/04 01:54:10;;;;;;;9.63;5.10;;;;;;;;;;506219;29;1173;-75
2023/07/04 01:54:25;;;;;;;9.38;5.13;;;;;;;;;;496179;29;1163;-76
2023/07/04 01:54:41;;;;;;;9.75;5.18;;;;;;;;;;499489;28;1132;-76
2023/07/04 01:54:57;;;;;;;10.03;4.97;;;;;;;;;;500123;28;1346;-75
2023/07/04 01:55:14;;;;;;;10.55;5.20;;;;;;;;;;498921;28;1794;-76
2023/07/04 01:55:33;;;;;;;9.27;5.30;;;;;;;;;;500932;28;1020;-76
2023/07/04 01:55:48;;;;;;;8.88;5.18;;;;;;;;;;502982;28;1238;-76
2023/07/04 01:56:04;;;;;;;9.40;5.20;;;;;;;;;;505098;28;1378;-76
2023/07/04 01:56:20;;;;;;;10.10;5.38;;;;;;;;;;507054;28;1087;-76
2023/07/04 01:56:38;;;;;;;10.77;5.18;;;;;;;;;;506385;28;1000;-76
2023/07/04 01:56:53;;;;;;;9.95;5.10;;;;;;;;;;507332;28;1303;-76
2023/07/04 01:57:10;;;;;;;10.63;5.43;;;;;;;;;;507601;28;1327;-76
2023/07/04 01:57:26;;;;;;;11.35;5.32;;;;;;;;;;505568;28;1327;-76
2023/07/04 01:57:42;;;;;;;10.18;5.20;;;;;;;;;;504639;28;1640;-76
2023/07/04 01:57:58;;;;;;;10.60;5.47;;;;;;;;;;502702;28;1451;-76
2023/07/04 01:58:14;;;;;;;10.20;5.53;;;;;;;;;;510046;28;1373;-76
2023/07/04 01:58:30;;;;;;;9.07;5.03;;;;;;;;;;509942;28;1287;-75
2023/07/04 01:58:49;;;;;;;9.07;5.00;;;;;;;;;;512321;28;1550;-76
2023/07/04 01:59:09;;;;;;;9.95;5.47;;;;;;;;;;512161;28;1461;-76
2023/07/04 01:59:27;;;;;;;9.70;5.25;;;;;;;;;;512753;28;1354;-76
2023/07/04 01:59:43;;;;;;;9.20;5.22;;;;;;;;;;513068;28;1445;-76
2023/07/04 02:00:02;;;;;;;8.63;5.10;;;;;;;;;;513559;28;1021;-76
2023/07/04 02:00:28;;;;;;;8.95;5.40;;;;;;;;;;507485;28;1359;-76
2023/07/04 02:01:18;;;;;;;9.63;5.10;;;;;;;;;;509292;28;1442;-75
2023/07/04 02:02:09;;;;;;;8.05;4.68;;;;;;;;;;508083;28;1371;-74
2023/07/04 02:03:20;;;;;;;10.40;5.38;;;;;;;;;;500003;28;1507;-76
2023/07/04 02:03:56;;;;;;;9.23;4.75;;;;;;;;;;498507;29;1151;-75
2023/07/04 02:04:15;;;;;;;9.50;5.47;;;;;;;;;;502497;28;1496;-76
2023/07/04 02:04:33;;;;;;;9.07;5.30;;;;;;;;;;506994;28;1487;-76
2023/07/04 02:05:07;;;;;;;;;;;;;;;;;;;;;
2023/07/04 02:05:57;;;;;;;8.13;5.00;;;;;;;;;;501120;28;1139;-75
2023/07/04 02:07:28;;;;;;;;;;;;;;;;;;;;;
2023/07/04 02:09:16;;;;;;;9.48;5.57;;;;;;;;;;504079;28;981;-75
2023/07/04 02:09:37;;;;;;;11.20;5.57;;;;;;;;;;501913;28;1487;-76
2023/07/04 02:10:20;;;;;;;9.65;5.20;;;;;;;;;;500894;28;1455;-76
2023/07/04 02:10:54;;;;;;;;;;;;;;;;;;;;;
2023/07/04 02:11:12;;;;;;;9.45;5.57;;;;;;;;;;501467;28;1192;-76
2023/07/04 02:11:45;;;;;;;8.35;5.05;;;;;;;;;;503610;28;1287;-76
2023/07/04 02:12:23;;;;;;;10.63;5.30;;;;;;;;;;501423;28;1163;-77
2023/07/04 02:12:48;;;;;;;8.68;5.15;;;;;;;;;;498956;29;1215;-76
2023/07/04 02:13:32;;;;;;;10.35;5.22;;;;;;;;;;499260;29;1395;-76
2023/07/04 02:14:12;;;;;;;9.98;5.72;;;;;;;;;;498104;29;1183;-75
2023/07/04 02:15:00;;;;;;;9.50;5.43;;;;;;;;;;502270;28;1468;-75
2023/07/04 02:15:28;;;;;;;8.32;5.10;;;;;;;;;;502139;28;1551;-76
2023/07/04 02:16:04;;;;;;;9.20;5.00;;;;;;;;;;504208;28;1555;-76
2023/07/04 02:16:53;;;;;;;8.82;5.05;;;;;;;;;;501892;29;1474;-76
2023/07/04 02:17:23;;;;;;;8.90;5.25;;;;;;;;;;502026;28;1189;-76
2023/07/04 02:17:59;;;;;;;10.02;5.45;;;;;;;;;;501388;29;1426;-76
2023/07/04 02:18:28;;;;;;;9.13;5.03;;;;;;;;;;500714;28;1324;-76
2023/07/04 02:19:16;;;;;;;10.23;5.30;;;;;;;;;;501462;28;1584;-75
2023/07/04 02:19:41;;;;;;;8.70;5.10;;;;;;;;;;500335;29;1545;-75
2023/07/04 02:20:03;;;;;;;9.63;5.40;;;;;;;;;;499977;29;1281;-76
2023/07/04 02:21:01;;;;;;;10.57;5.30;;;;;;;;;;502745;28;1300;-76
2023/07/04 02:21:20;;;;;;;11.35;5.15;;;;;;;;;;496061;29;1464;-76
2023/07/04 02:21:47;;;;;;;10.75;5.00;;;;;;;;;;499865;29;1305;-76
2023/07/04 02:22:06;;;;;;;10.38;5.18;;;;;;;;;;501759;29;1327;-76
2023/07/04 02:22:35;;;;;;;10.68;5.10;;;;;;;;;;500642;29;1345;-76
2023/07/04 02:23:11;;;;;;;;;;;;;;;;;;;;;
2023/07/04 02:23:59;;;;;;;11.15;5.60;;;;;;;;;;499299;28;1714;-76
2023/07/04 02:24:30;;;;;;;8.60;5.07;;;;;;;;;;495885;29;1693;-75
2023/07/04 02:24:51;;;;;;;9.50;5.57;;;;;;;;;;495620;29;1150;-76
2023/07/04 02:26:01;;;;;;;10.98;5.20;;;;;;;;;;496118;29;1084;-75
2023/07/04 02:26:24;;;;;;;10.05;5.30;;;;;;;;;;495861;29;1273;-76
2023/07/04 02:26:53;;;;;;;;;;;;;;;;;;;;;
2023/07/04 02:27:48;;;;;;;10.57;5.35;;;;;;;;;;496145;29;1746;-76
2023/07/04 02:27:55;;;;;;;9.43;5.40;;;;;;;;;;500053;29;1112;-74
2023/07/04 02:28:06;;;;;;;10.43;5.18;;;;;;;;;;497163;29;1447;-76
2023/07/04 02:28:25;;;;;;;9.00;5.25;;;;;;;;;;500907;29;1372;-76
2023/07/04 02:29:00;;;;;;;8.38;5.25;;;;;;;;;;501707;28;1329;-75
2023/07/04 02:29:56;;;;;;;8.70;4.95;;;;;;;;;;501421;28;1483;-76
2023/07/04 02:30:18;;;;;;;8.43;5.05;;;;;;;;;;494274;29;1316;-75
2023/07/04 02:32:00;;;;;;;8.90;5.15;;;;;;;;;;497862;29;1189;-76
2023/07/04 02:32:42;;;;;;;11.73;5.60;;;;;;;;;;492658;29;1583;-76
2023/07/04 02:33:20;;;;;;;10.68;5.65;;;;;;;;;;492044;29;1391;-76
2023/07/04 02:33:42;;;;;;;9.80;5.00;;;;;;;;;;490681;29;1132;-76
2023/07/04 02:34:45;;;;;;;12.02;5.63;;;;;;;;;;488580;29;1538;-77
2023/07/04 02:35:02;;;;;;;9.20;5.32;;;;;;;;;;486036;29;1496;-75
2023/07/04 02:35:45;;;;;;;9.47;5.70;;;;;;;;;;486695;29;1335;-76
2023/07/04 02:37:12;;;;;;;;;;;;;;;;;;;;;
2023/07/04 02:37:40;;;;;;;11.02;5.40;;;;;;;;;;491709;29;1219;-75
2023/07/04 02:38:37;;;;;;;9.88;5.43;;;;;;;;;;492227;29;1320;-75
2023/07/04 02:39:52;;;;;;;;;;;;;;;;;;;;;
2023/07/04 02:40:51;;;;;;;9.00;5.50;;;;;;;;;;494311;29;1137;-76
2023/07/04 02:41:45;;;;;;;8.32;5.13;;;;;;;;;;492694;29;1592;-74
2023/07/04 02:42:10;;;;;;;10.30;5.63;;;;;;;;;;489065;29;1555;-76
2023/07/04 02:42:32;;;;;;;11.90;5.70;;;;;;;;;;488991;29;1390;-76
2023/07/04 02:43:07;;;;;;;;;;;;;;;;;;;;;
2023/07/04 02:43:26;;;;;;;10.40;5.63;;;;;;;;;;488258;29;1166;-76
2023/07/04 02:43:58;;;;;;;9.85;5.22;;;;;;;;;;483718;29;1225;-75
2023/07/04 02:44:19;;;;;;;10.55;5.50;;;;;;;;;;486232;29;1429;-76
2023/07/04 02:44:47;;;;;;;8.88;5.30;;;;;;;;;;484580;29;1591;-76
2023/07/04 02:45:06;;;;;;;9.27;5.30;;;;;;;;;;486407;29;1312;-76
2023/07/04 02:45:51;;;;;;;9.35;5.22;;;;;;;;;;487083;29;1423;-77
2023/07/04 02:46:16;;;;;;;9.15;5.32;;;;;;;;;;487355;29;1380;-75
2023/07/04 02:48:19;;;;;;;11.73;5.63;;;;;;;;;;485804;29;1239;-75
2023/07/04 02:48:41;;;;;;;9.23;5.18;;;;;;;;;;481914;30;1480;-76
2023/07/04 02:49:11;;;;;;;9.48;5.30;;;;;;;;;;481716;30;1447;-76
2023/07/04 02:49:35;;;;;;;10.07;5.25;;;;;;;;;;481013;30;997;-76
2023/07/04 02:51:03;;;;;;;9.52;5.40;;;;;;;;;;481186;30;1517;-76
2023/07/04 02:52:42;;;;;;;9.80;5.47;;;;;;;;;;480964;30;1143;-75
2023/07/04 02:52:58;;;;;;;9.40;5.60;;;;;;;;;;481364;30;1423;-76
2023/07/04 02:53:29;;;;;;;9.48;5.63;;;;;;;;;;481635;30;1954;-76
2023/07/04 02:53:59;;;;;;;9.88;5.80;;;;;;;;;;482400;30;1626;-75
2023/07/04 02:54:23;;;;;;;8.85;5.32;;;;;;;;;;481544;30;1323;-75
2023/07/04 02:55:18;;;;;;;;;;;;;;;;;;;;;
2023/07/04 02:55:42;;;;;;;10.25;5.25;;;;;;;;;;475105;30;1343;-75
2023/07/04 02:56:46;;;;;;;10.70;5.45;;;;;;;;;;482657;30;1286;-76
2023/07/04 02:57:23;;;;;;;11.15;5.57;;;;;;;;;;481461;29;1276;-76
2023/07/04 02:57:45;;;;;;;9.15;5.65;;;;;;;;;;483347;30;1468;-76
2023/07/04 02:58:27;;;;;;;9.40;5.60;;;;;;;;;;480609;29;1127;-75
2023/07/04 02:59:33;;;;;;;;;;;;;;;;;;;;;
2023/07/04 03:01:07;;;;;;;8.15;5.00;;;;;;;;;;488131;29;1326;-76
2023/07/04 03:01:32;;;;;;;8.90;5.32;;;;;;;;;;485660;29;1795;-76
2023/07/04 03:02:09;;;;;;;8.82;5.40;;;;;;;;;;486700;29;1489;-76
2023/07/04 03:02:28;;;;;;;8.70;5.32;;;;;;;;;;492446;29;1058;-76
2023/07/04 03:03:02;;;;;;;9.15;5.45;;;;;;;;;;492466;29;1521;-76
2023/07/04 03:03:41;;;;;;;8.65;5.25;;;;;;;;;;490404;29;1484;-76
2023/07/04 03:04:06;;;;;;;9.45;5.47;;;;;;;;;;490244;29;950;-76
2023/07/04 03:04:26;;;;;;;9.20;5.32;;;;;;;;;;493348;29;1561;-76
2023/07/04 03:04:51;;;;;;;9.20;5.40;;;;;;;;;;490830;29;1481;-76
2023/07/04 03:05:11;;;;;;;8.45;5.35;;;;;;;;;;492164;29;1561;-76
2023/07/04 03:05:37;;;;;;;10.23;5.32;;;;;;;;;;493346;29;1073;-76
2023/07/04 03:05:59;;;;;;;9.85;5.40;;;;;;;;;;493256;29;1513;-76
2023/07/04 03:06:30;;;;;;;11.18;5.60;;;;;;;;;;491953;29;1384;-76
2023/07/04 03:07:04;;;;;;;9.65;5.53;;;;;;;;;;491114;29;1623;-77
2023/07/04 03:07:42;;;;;;;8.52;5.45;;;;;;;;;;498589;29;1376;-77
2023/07/04 03:08:30;;;;;;;10.02;5.20;;;;;;;;;;493063;29;1586;-76
2023/07/04 03:08:57;;;;;;;9.40;5.43;;;;;;;;;;490630;29;1295;-76
2023/07/04 03:09:54;;;;;;;8.57;5.20;;;;;;;;;;496447;29;1194;-76
2023/07/04 03:11:55;;;;;;;9.88;5.38;;;;;;;;;;492617;29;1571;-76
2023/07/04 03:12:28;;;;;;;11.07;5.68;;;;;;;;;;491623;29;1207;-76
2023/07/04 03:13:32;;;;;;;;;;;;;;;;;;;;;
2023/07/04 03:13:49;;;;;;;9.98;5.10;;;;;;;;;;494546;29;1414;-75
2023/07/04 03:14:20;;;;;;;9.82;5.32;;;;;;;;;;498212;29;1669;-75
2023/07/04 03:14:48;;;;;;;;;;;;;;;;;;;;;
2023/07/04 03:15:43;;;;;;;10.40;5.70;;;;;;;;;;496106;29;1189;-76
2023/07/04 03:16:55;;;;;;;10.07;5.32;;;;;;;;;;496157;29;1317;-75
2023/07/04 03:18:09;;;;;;;9.18;5.30;;;;;;;;;;490650;29;1417;-76
2023/07/04 03:18:28;;;;;;;8.82;5.20;;;;;;;;;;490014;29;1352;-75
2023/07/04 03:19:23;;;;;;;8.48;5.07;;;;;;;;;;495121;29;1361;-75
2023/07/04 03:19:44;;;;;;;10.70;5.53;;;;;;;;;;498267;29;1328;-76
2023/07/04 03:20:12;;;;;;;10.13;5.40;;;;;;;;;;498413;29;1393;-74
2023/07/04 03:20:40;;;;;;;;;;;;;;;;;;;;;
2023/07/04 03:21:08;;;;;;;10.82;5.20;;;;;;;;;;501200;28;1258;-75
2023/07/04 03:21:51;;;;;;;8.98;5.38;;;;;;;;;;500484;29;1598;-76
2023/07/04 03:22:30;;;;;;;9.60;5.20;;;;;;;;;;501037;28;1356;-75
2023/07/04 03:22:57;;;;;;;8.80;5.60;;;;;;;;;;500688;28;1517;-75
2023/07/04 03:24:42;;;;;;;;;;;;;;;;;;;;;
2023/07/04 03:25:55;;;;;;;9.68;5.40;;;;;;;;;;496851;29;1445;-76
2023/07/04 03:26:34;;;;;;;9.02;5.10;;;;;;;;;;496285;29;1496;-75
2023/07/04 03:26:52;;;;;;;8.35;4.90;;;;;;;;;;496157;29;1230;-76
2023/07/04 03:27:35;;;;;;;10.45;5.40;;;;;;;;;;496607;29;1179;-75
2023/07/04 03:28:16;;;;;;;11.02;5.60;;;;;;;;;;494373;29;1207;-75
2023/07/04 03:28:33;;;;;;;10.73;5.38;;;;;;;;;;494804;29;1378;-75
2023/07/04 03:29:17;;;;;;;9.73;5.15;;;;;;;;;;492879;29;1564;-75
2023/07/04 03:29:59;;;;;;;9.38;5.13;;;;;;;;;;492046;29;1516;-76
2023/07/04 03:31:05;;;;;;;10.27;5.20;;;;;;;;;;488435;29;1525;-75
2023/07/04 03:31:18;;;;;;;9.90;5.50;;;;;;;;;;489709;29;1369;-75
2023/07/04 03:31:49;;;;;;;10.63;5.10;;;;;;;;;;490715;29;1270;-76
2023/07/04 03:32:11;;;;;;;9.57;5.05;;;;;;;;;;489705;29;1458;-76
2023/07/04 03:32:53;;;;;;;10.05;5.25;;;;;;;;;;489641;29;1015;-76
2023/07/04 03:33:30;;;;;;;8.43;5.03;;;;;;;;;;488649;29;992;-75
2023/07/04 03:33:59;;;;;;;;;;;;;;;;;;;;;
2023/07/04 03:34:41;;;;;;;9.65;5.40;;;;;;;;;;489697;29;1307;-77
2023/07/04 03:36:24;;;;;;;9.48;5.30;;;;;;;;;;491479;29;1591;-75
2023/07/04 03:37:17;;;;;;;11.02;5.32;;;;;;;;;;489644;29;1485;-75
2023/07/04 03:37:40;;;;;;;10.52;5.32;;;;;;;;;;487439;29;1173;-76
2023/07/04 03:38:01;;;;;;;9.85;5.30;;;;;;;;;;489363;29;1376;-75
2023/07/04 03:38:42;;;;;;;10.18;5.53;;;;;;;;;;489998;29;1486;-76
2023/07/04 03:39:34;;;;;;;11.55;5.55;;;;;;;;;;486970;29;1571;-75
2023/07/04 03:40:07;;;;;;;10.77;5.60;;;;;;;;;;491285;29;1553;-75
2023/07/04 03:40:35;;;;;;;9.23;5.30;;;;;;;;;;492214;29;1066;-75
2023/07/04 03:41:23;;;;;;;9.23;5.50;;;;;;;;;;488710;29;1382;-77
2023/07/04 03:41:46;;;;;;;8.73;5.18;;;;;;;;;;486124;29;1822;-75
2023/07/04 03:42:14;;;;;;;10.38;5.40;;;;;;;;;;487697;29;1490;-76
2023/07/04 03:43:20;;;;;;;9.18;5.55;;;;;;;;;;486021;29;1509;-76
2023/07/04 03:45:12;;;;;;;;;;;;;;;;;;;;;
2023/07/04 03:45:41;;;;;;;10.23;5.45;;;;;;;;;;485716;29;1266;-76
2023/07/04 03:46:23;;;;;;;10.40;5.50;;;;;;;;;;482576;29;1448;-76
2023/07/04 03:47:21;;;;;;;9.75;5.47;;;;;;;;;;482419;30;1284;-75
2023/07/04 03:48:56;;;;;;;8.93;5.45;;;;;;;;;;485525;29;1169;-76
2023/07/04 03:50:14;;;;;;;10.43;5.30;;;;;;;;;;483580;29;1297;-75
2023/07/04 03:50:45;;;;;;;9.95;5.50;;;;;;;;;;485455;29;1363;-75
2023/07/04 03:51:37;;;;;;;9.65;5.32;;;;;;;;;;484909;29;1312;-75
2023/07/04 03:52:38;;;;;;;10.68;5.50;;;;;;;;;;484061;29;1280;-75
2023/07/04 03:53:37;;;;;;;10.10;5.70;;;;;;;;;;481554;30;1453;-75
2023/07/04 03:54:38;;;;;;;9.15;5.20;;;;;;;;;;479489;30;1534;-77
2023/07/04 03:55:01;;;;;;;10.38;5.35;;;;;;;;;;472304;30;1402;-76
2023/07/04 03:55:26;;;;;;;11.85;5.53;;;;;;;;;;469935;30;1270;-76
2023/07/04 03:56:16;;;;;;;11.40;5.60;;;;;;;;;;478589;30;1457;-77
2023/07/04 03:56:44;;;;;;;9.80;5.05;;;;;;;;;;480102;30;1237;-75
2023/07/04 03:57:18;;;;;;;11.35;5.88;;;;;;;;;;482651;30;952;-75
2023/07/04 03:57:34;;;;;;;8.95;5.25;;;;;;;;;;483395;29;1432;-76
2023/07/04 03:57:49;;;;;;;8.70;5.30;;;;;;;;;;492048;30;1452;-76
2023/07/04 03:58:05;;;;;;;8.57;5.07;;;;;;;;;;493059;30;1368;-75
2023/07/04 03:58:22;;;;;;;8.93;5.10;;;;;;;;;;494295;30;1288;-76